TVF834L DAAE-LFPO
Flight info
| Callsign | TVF834L |
|---|---|
| Flight time | 2h 7m |
| Altitude | 38000 |
| Route | BJA UA411 ALR UG30 SADAF DCT GALAT DCT RODRA DCT VNV DCT ANTON DCT BISES DCT SADUR DCT CAVES DCT LATRO DCT OLOXO DCT OKABI DCT TOU DCT DIBAG/N0430F340 DCT TUDRA/N0390F280 DCT BEVOL UT158 AMB |
| Aircraft | B738/M-SDFGHIJ1RWXY/LB1 |
Departure
| Time | 2026-05-05 12:24 |
|---|---|
| Airport | Soummam–Abane Ramdane Airport (DAAE) |
Arrival
| Time | 2026-05-05 14:31 |
|---|---|
| Airport | Paris-Orly Airport (LFPO) |
| Time | Latitude | Longitude | Altitude | Speed | Heading |
|---|---|---|---|---|---|
| 2026-05-05 11:26 | 36.71434 | 5.07248 | 21 ft | 0 kts | 216° |
| 2026-05-05 12:16 | 36.71430 | 5.07245 | 20 ft | 0 kts | 216° |
| 2026-05-05 12:19 | 36.71427 | 5.07242 | 22 ft | 3 kts | 216° |
| 2026-05-05 12:19 | 36.71402 | 5.07213 | 20 ft | 6 kts | 231° |
| 2026-05-05 12:19 | 36.71386 | 5.07165 | 20 ft | 8 kts | 261° |
| 2026-05-05 12:19 | 36.71376 | 5.07079 | 21 ft | 13 kts | 262° |
| 2026-05-05 12:20 | 36.71358 | 5.06958 | 22 ft | 15 kts | 244° |
| 2026-05-05 12:20 | 36.71267 | 5.06934 | 21 ft | 14 kts | 172° |
| 2026-05-05 12:20 | 36.71188 | 5.06892 | 19 ft | 14 kts | 259° |
| 2026-05-05 12:20 | 36.71173 | 5.06777 | 19 ft | 13 kts | 260° |
| 2026-05-05 12:21 | 36.71160 | 5.06653 | 20 ft | 16 kts | 263° |
| 2026-05-05 12:21 | 36.71150 | 5.06558 | 22 ft | 18 kts | 262° |
| 2026-05-05 12:21 | 36.71131 | 5.06393 | 25 ft | 21 kts | 261° |
| 2026-05-05 12:21 | 36.71107 | 5.06199 | 24 ft | 24 kts | 261° |
| 2026-05-05 12:22 | 36.71083 | 5.06001 | 25 ft | 23 kts | 262° |
| 2026-05-05 12:22 | 36.71062 | 5.05812 | 29 ft | 19 kts | 262° |
| 2026-05-05 12:22 | 36.71062 | 5.05685 | 26 ft | 8 kts | 224° |
| 2026-05-05 12:22 | 36.71040 | 5.05704 | 25 ft | 7 kts | 82° |
| 2026-05-05 12:23 | 36.71054 | 5.05758 | 24 ft | 6 kts | 79° |
| 2026-05-05 12:23 | 36.71062 | 5.05815 | 26 ft | 8 kts | 81° |
| 2026-05-05 12:23 | 36.71097 | 5.06112 | 25 ft | 70 kts | 82° |
| 2026-05-05 12:23 | 36.71200 | 5.07003 | 19 ft | 135 kts | 82° |
| 2026-05-05 12:24 | 36.71369 | 5.08323 | 292 ft | 162 kts | 81° |
| 2026-05-05 12:24 | 36.71564 | 5.09764 | 890 ft | 172 kts | 82° |
| 2026-05-05 12:24 | 36.71726 | 5.11237 | 1670 ft | 171 kts | 82° |
| 2026-05-05 12:24 | 36.71867 | 5.12744 | 2141 ft | 187 kts | 83° |
| 2026-05-05 12:25 | 36.72017 | 5.14463 | 2376 ft | 211 kts | 83° |
| 2026-05-05 12:25 | 36.72191 | 5.16372 | 2557 ft | 231 kts | 82° |
| 2026-05-05 12:25 | 36.72750 | 5.18330 | 2708 ft | 254 kts | 54° |
| 2026-05-05 12:25 | 36.74132 | 5.19767 | 3171 ft | 268 kts | 24° |
| 2026-05-05 12:26 | 36.75968 | 5.20226 | 3772 ft | 274 kts | 355° |
| 2026-05-05 12:26 | 36.77777 | 5.19564 | 4533 ft | 274 kts | 328° |
| 2026-05-05 12:26 | 36.79155 | 5.17958 | 5173 ft | 274 kts | 300° |
| 2026-05-05 12:26 | 36.79766 | 5.15764 | 5979 ft | 267 kts | 272° |
| 2026-05-05 12:27 | 36.79501 | 5.13502 | 6704 ft | 266 kts | 246° |
| 2026-05-05 12:27 | 36.78438 | 5.11637 | 7413 ft | 266 kts | 221° |
| 2026-05-05 12:27 | 36.76853 | 5.10444 | 8166 ft | 269 kts | 203° |
| 2026-05-05 12:27 | 36.75120 | 5.09633 | 8924 ft | 271 kts | 201° |
| 2026-05-05 12:28 | 36.73363 | 5.08769 | 9714 ft | 273 kts | 211° |
| 2026-05-05 12:28 | 36.72009 | 5.07128 | 10378 ft | 279 kts | 237° |
| 2026-05-05 12:28 | 36.71307 | 5.04770 | 10572 ft | 306 kts | 259° |
| 2026-05-05 12:28 | 36.71120 | 5.02057 | 11006 ft | 320 kts | 264° |
| 2026-05-05 12:29 | 36.71022 | 4.99277 | 11778 ft | 321 kts | 265° |
| 2026-05-05 12:29 | 36.70945 | 4.96511 | 12721 ft | 318 kts | 265° |
| 2026-05-05 12:29 | 36.70867 | 4.93767 | 13643 ft | 317 kts | 264° |
| 2026-05-05 12:29 | 36.70783 | 4.91022 | 14408 ft | 319 kts | 264° |
| 2026-05-05 12:30 | 36.70692 | 4.88233 | 15042 ft | 326 kts | 264° |
| 2026-05-05 12:30 | 36.70592 | 4.85396 | 15743 ft | 330 kts | 264° |
| 2026-05-05 12:30 | 36.70486 | 4.82515 | 16368 ft | 337 kts | 264° |
| 2026-05-05 12:30 | 36.70373 | 4.79577 | 16998 ft | 342 kts | 264° |
| 2026-05-05 12:31 | 36.70260 | 4.76618 | 17804 ft | 343 kts | 264° |
| 2026-05-05 12:31 | 36.70145 | 4.73626 | 18451 ft | 348 kts | 264° |
| 2026-05-05 12:31 | 36.70026 | 4.70600 | 19061 ft | 351 kts | 264° |
| 2026-05-05 12:31 | 36.69906 | 4.67551 | 19661 ft | 355 kts | 264° |
| 2026-05-05 12:32 | 36.69783 | 4.64462 | 20232 ft | 358 kts | 264° |
| 2026-05-05 12:32 | 36.69658 | 4.61351 | 20846 ft | 361 kts | 264° |
| 2026-05-05 12:32 | 36.69530 | 4.58208 | 21443 ft | 365 kts | 264° |
| 2026-05-05 12:32 | 36.69402 | 4.55039 | 22027 ft | 368 kts | 264° |
| 2026-05-05 12:33 | 36.69271 | 4.51845 | 22601 ft | 371 kts | 264° |
| 2026-05-05 12:33 | 36.69138 | 4.48616 | 23130 ft | 375 kts | 264° |
| 2026-05-05 12:33 | 36.69002 | 4.45359 | 23672 ft | 378 kts | 264° |
| 2026-05-05 12:33 | 36.68865 | 4.42078 | 24141 ft | 381 kts | 264° |
| 2026-05-05 12:34 | 36.68726 | 4.38772 | 24613 ft | 383 kts | 264° |
| 2026-05-05 12:34 | 36.68585 | 4.35449 | 25061 ft | 386 kts | 264° |
| 2026-05-05 12:34 | 36.68442 | 4.32093 | 25475 ft | 389 kts | 264° |
| 2026-05-05 12:34 | 36.68297 | 4.28716 | 25904 ft | 392 kts | 264° |
| 2026-05-05 12:35 | 36.68150 | 4.25319 | 26372 ft | 394 kts | 264° |
| 2026-05-05 12:35 | 36.68001 | 4.21901 | 26787 ft | 397 kts | 264° |
| 2026-05-05 12:35 | 36.67851 | 4.18456 | 27179 ft | 400 kts | 264° |
| 2026-05-05 12:35 | 36.67698 | 4.14994 | 27628 ft | 401 kts | 264° |
| 2026-05-05 12:36 | 36.67544 | 4.11512 | 28040 ft | 403 kts | 264° |
| 2026-05-05 12:36 | 36.67388 | 4.08029 | 28521 ft | 404 kts | 264° |
| 2026-05-05 12:36 | 36.67230 | 4.04522 | 28886 ft | 407 kts | 264° |
| 2026-05-05 12:36 | 36.67069 | 4.00988 | 29240 ft | 410 kts | 264° |
| 2026-05-05 12:37 | 36.66907 | 3.97429 | 29633 ft | 412 kts | 264° |
| 2026-05-05 12:37 | 36.66746 | 3.93907 | 29993 ft | 414 kts | 264° |
| 2026-05-05 12:37 | 36.66580 | 3.90318 | 30310 ft | 416 kts | 264° |
| 2026-05-05 12:37 | 36.66412 | 3.86707 | 30543 ft | 419 kts | 264° |
| 2026-05-05 12:38 | 36.66242 | 3.83069 | 30803 ft | 422 kts | 264° |
| 2026-05-05 12:38 | 36.66070 | 3.79417 | 31118 ft | 423 kts | 264° |
| 2026-05-05 12:38 | 36.65898 | 3.75761 | 31463 ft | 423 kts | 264° |
| 2026-05-05 12:38 | 36.65724 | 3.72109 | 31878 ft | 421 kts | 264° |
| 2026-05-05 12:39 | 36.65551 | 3.68475 | 32288 ft | 420 kts | 264° |
| 2026-05-05 12:39 | 36.65376 | 3.64852 | 32657 ft | 419 kts | 264° |
| 2026-05-05 12:39 | 36.65200 | 3.61226 | 32979 ft | 420 kts | 265° |
| 2026-05-05 12:39 | 36.65212 | 3.57586 | 33311 ft | 422 kts | 273° |
| 2026-05-05 12:40 | 36.65592 | 3.53961 | 33709 ft | 422 kts | 275° |
| 2026-05-05 12:40 | 36.66009 | 3.50350 | 34085 ft | 421 kts | 275° |
| 2026-05-05 12:40 | 36.66417 | 3.46748 | 34412 ft | 419 kts | 275° |
| 2026-05-05 12:40 | 36.66813 | 3.43168 | 34817 ft | 416 kts | 275° |
| 2026-05-05 12:41 | 36.67195 | 3.39615 | 35255 ft | 411 kts | 274° |
| 2026-05-05 12:41 | 36.67568 | 3.36103 | 35633 ft | 408 kts | 274° |
| 2026-05-05 12:41 | 36.67937 | 3.32605 | 35966 ft | 406 kts | 274° |
| 2026-05-05 12:41 | 36.68303 | 3.29122 | 36295 ft | 404 kts | 274° |
| 2026-05-05 12:42 | 36.68760 | 3.25673 | 36622 ft | 406 kts | 283° |
| 2026-05-05 12:42 | 36.69944 | 3.22460 | 36921 ft | 413 kts | 297° |
| 2026-05-05 12:42 | 36.71733 | 3.19634 | 37238 ft | 421 kts | 310° |
| 2026-05-05 12:42 | 36.74078 | 3.17382 | 37463 ft | 430 kts | 320° |
| 2026-05-05 12:43 | 36.76602 | 3.15379 | 37727 ft | 430 kts | 321° |
| 2026-05-05 12:43 | 36.79149 | 3.13435 | 37976 ft | 429 kts | 322° |
| 2026-05-05 12:43 | 36.84282 | 3.09528 | 38001 ft | 432 kts | 321° |
| 2026-05-05 12:44 | 36.89361 | 3.05596 | 37995 ft | 427 kts | 321° |
| 2026-05-05 12:44 | 36.94379 | 3.01658 | 37992 ft | 425 kts | 321° |
| 2026-05-05 12:45 | 36.99369 | 2.97720 | 37999 ft | 424 kts | 320° |
| 2026-05-05 12:45 | 37.04348 | 2.93782 | 37991 ft | 423 kts | 320° |
| 2026-05-05 12:46 | 37.09328 | 2.89839 | 37991 ft | 424 kts | 320° |
| 2026-05-05 12:46 | 37.14317 | 2.85883 | 37990 ft | 425 kts | 320° |
| 2026-05-05 12:47 | 37.19325 | 2.81906 | 37991 ft | 427 kts | 320° |
| 2026-05-05 12:47 | 37.24358 | 2.77903 | 37992 ft | 429 kts | 320° |
| 2026-05-05 12:48 | 37.29412 | 2.73878 | 37990 ft | 431 kts | 320° |
| 2026-05-05 12:48 | 37.34486 | 2.69832 | 37981 ft | 432 kts | 320° |
| 2026-05-05 12:49 | 37.39566 | 2.65773 | 37988 ft | 433 kts | 320° |
| 2026-05-05 12:49 | 37.44626 | 2.61723 | 37983 ft | 434 kts | 320° |
| 2026-05-05 12:50 | 37.49729 | 2.57633 | 37986 ft | 435 kts | 320° |
| 2026-05-05 12:50 | 37.54832 | 2.53536 | 37977 ft | 435 kts | 320° |
| 2026-05-05 12:51 | 37.59930 | 2.49436 | 37976 ft | 435 kts | 320° |
| 2026-05-05 12:51 | 37.65023 | 2.45333 | 37978 ft | 434 kts | 320° |
| 2026-05-05 12:52 | 37.70110 | 2.41228 | 38003 ft | 434 kts | 319° |
| 2026-05-05 12:52 | 37.75196 | 2.37116 | 37982 ft | 434 kts | 319° |
| 2026-05-05 12:53 | 37.80511 | 2.33414 | 37970 ft | 445 kts | 332° |
| 2026-05-05 12:53 | 37.86659 | 2.31693 | 37985 ft | 458 kts | 345° |
| 2026-05-05 12:54 | 37.96180 | 2.30298 | 37975 ft | 459 kts | 346° |
| 2026-05-05 12:55 | 38.02529 | 2.29342 | 37966 ft | 459 kts | 346° |
| 2026-05-05 12:55 | 38.08873 | 2.28338 | 37956 ft | 460 kts | 345° |
| 2026-05-05 12:56 | 38.15229 | 2.27313 | 37952 ft | 461 kts | 345° |
| 2026-05-05 12:56 | 38.21552 | 2.26289 | 37951 ft | 462 kts | 345° |
| 2026-05-05 12:57 | 38.27937 | 2.25255 | 37952 ft | 463 kts | 345° |
| 2026-05-05 12:57 | 38.34334 | 2.24219 | 37947 ft | 463 kts | 345° |
| 2026-05-05 12:58 | 38.40733 | 2.23182 | 37946 ft | 464 kts | 345° |
| 2026-05-05 12:58 | 38.47140 | 2.22141 | 37942 ft | 464 kts | 345° |
| 2026-05-05 12:59 | 38.53545 | 2.21098 | 37942 ft | 464 kts | 345° |
| 2026-05-05 12:59 | 38.59955 | 2.20053 | 37943 ft | 464 kts | 345° |
| 2026-05-05 13:00 | 38.69567 | 2.18481 | 37947 ft | 464 kts | 345° |
| 2026-05-05 13:01 | 38.82378 | 2.16381 | 37939 ft | 464 kts | 345° |
| 2026-05-05 13:01 | 38.88776 | 2.15329 | 37973 ft | 463 kts | 344° |
| 2026-05-05 13:02 | 38.95172 | 2.14275 | 37943 ft | 463 kts | 344° |
| 2026-05-05 13:02 | 39.01562 | 2.13220 | 37934 ft | 463 kts | 344° |
| 2026-05-05 13:03 | 39.07946 | 2.12165 | 37937 ft | 462 kts | 344° |
| 2026-05-05 13:03 | 39.14322 | 2.11109 | 37940 ft | 462 kts | 344° |
| 2026-05-05 13:04 | 39.20697 | 2.10050 | 37939 ft | 462 kts | 344° |
| 2026-05-05 13:04 | 39.27072 | 2.08991 | 37937 ft | 462 kts | 344° |
| 2026-05-05 13:05 | 39.33441 | 2.07930 | 37974 ft | 462 kts | 344° |
| 2026-05-05 13:05 | 39.39821 | 2.06864 | 37938 ft | 463 kts | 344° |
| 2026-05-05 13:06 | 39.46165 | 2.05804 | 37933 ft | 463 kts | 344° |
| 2026-05-05 13:06 | 39.52594 | 2.04727 | 37935 ft | 463 kts | 344° |
| 2026-05-05 13:07 | 39.58946 | 2.03661 | 37943 ft | 464 kts | 344° |
| 2026-05-05 13:07 | 39.65349 | 2.02584 | 37936 ft | 464 kts | 344° |
| 2026-05-05 13:08 | 39.71759 | 2.01505 | 37930 ft | 464 kts | 344° |
| 2026-05-05 13:08 | 39.78169 | 2.00424 | 37932 ft | 465 kts | 344° |
| 2026-05-05 13:09 | 39.83544 | 1.99515 | 37926 ft | 465 kts | 344° |
| 2026-05-05 13:09 | 39.89918 | 1.98436 | 37931 ft | 465 kts | 344° |
| 2026-05-05 13:10 | 39.96334 | 1.97348 | 37931 ft | 465 kts | 344° |
| 2026-05-05 13:10 | 40.02741 | 1.96259 | 37958 ft | 464 kts | 344° |
| 2026-05-05 13:11 | 40.09147 | 1.95168 | 37934 ft | 464 kts | 344° |
| 2026-05-05 13:11 | 40.15549 | 1.94075 | 37930 ft | 463 kts | 343° |
| 2026-05-05 13:12 | 40.21880 | 1.92730 | 37933 ft | 459 kts | 341° |
| 2026-05-05 13:12 | 40.28159 | 1.91196 | 37931 ft | 460 kts | 340° |
| 2026-05-05 13:13 | 40.34449 | 1.89678 | 37931 ft | 460 kts | 340° |
| 2026-05-05 13:13 | 40.40747 | 1.88194 | 37934 ft | 460 kts | 341° |
| 2026-05-05 13:14 | 40.47040 | 1.86723 | 37949 ft | 459 kts | 341° |
| 2026-05-05 13:14 | 40.53326 | 1.85251 | 37932 ft | 459 kts | 341° |
| 2026-05-05 13:15 | 40.59606 | 1.83776 | 37930 ft | 458 kts | 340° |
| 2026-05-05 13:15 | 40.65881 | 1.82299 | 37929 ft | 458 kts | 340° |
| 2026-05-05 13:16 | 40.72149 | 1.80821 | 37925 ft | 457 kts | 340° |
| 2026-05-05 13:16 | 40.78412 | 1.79340 | 37923 ft | 457 kts | 340° |
| 2026-05-05 13:17 | 40.84675 | 1.77857 | 37924 ft | 457 kts | 340° |
| 2026-05-05 13:17 | 40.90940 | 1.76371 | 37958 ft | 458 kts | 340° |
| 2026-05-05 13:18 | 40.97219 | 1.74878 | 37930 ft | 458 kts | 340° |
| 2026-05-05 13:18 | 41.03503 | 1.73381 | 37920 ft | 459 kts | 340° |
| 2026-05-05 13:19 | 41.09865 | 1.72177 | 37923 ft | 465 kts | 345° |
| 2026-05-05 13:19 | 41.16263 | 1.71318 | 37924 ft | 466 kts | 345° |
| 2026-05-05 13:20 | 41.22696 | 1.70361 | 37923 ft | 465 kts | 344° |
| 2026-05-05 13:20 | 41.29116 | 1.69314 | 37912 ft | 465 kts | 345° |
| 2026-05-05 13:21 | 41.35550 | 1.68339 | 37945 ft | 466 kts | 345° |
| 2026-05-05 13:21 | 41.42004 | 1.67356 | 37927 ft | 467 kts | 345° |
| 2026-05-05 13:22 | 41.48463 | 1.66374 | 37920 ft | 467 kts | 345° |
| 2026-05-05 13:22 | 41.54865 | 1.65370 | 37916 ft | 467 kts | 345° |
| 2026-05-05 13:23 | 41.61332 | 1.64334 | 37916 ft | 468 kts | 345° |
| 2026-05-05 13:23 | 41.67807 | 1.63300 | 37913 ft | 469 kts | 345° |
| 2026-05-05 13:24 | 41.74286 | 1.62266 | 37904 ft | 469 kts | 345° |
| 2026-05-05 13:24 | 41.80768 | 1.61235 | 37918 ft | 470 kts | 346° |
| 2026-05-05 13:25 | 41.87261 | 1.60218 | 37933 ft | 470 kts | 346° |
| 2026-05-05 13:25 | 41.93761 | 1.59198 | 37932 ft | 470 kts | 346° |
| 2026-05-05 13:26 | 42.00259 | 1.58176 | 37945 ft | 470 kts | 346° |
| 2026-05-05 13:26 | 42.06762 | 1.57147 | 37940 ft | 471 kts | 346° |
| 2026-05-05 13:27 | 42.13269 | 1.56117 | 37928 ft | 470 kts | 346° |
| 2026-05-05 13:27 | 42.19767 | 1.55086 | 37920 ft | 470 kts | 346° |
| 2026-05-05 13:28 | 42.26258 | 1.54054 | 37916 ft | 470 kts | 346° |
| 2026-05-05 13:28 | 42.32763 | 1.53016 | 37918 ft | 471 kts | 346° |
| 2026-05-05 13:29 | 42.39286 | 1.51974 | 37913 ft | 473 kts | 347° |
| 2026-05-05 13:29 | 42.45824 | 1.50928 | 37919 ft | 473 kts | 347° |
| 2026-05-05 13:30 | 42.52370 | 1.49882 | 37910 ft | 474 kts | 347° |
| 2026-05-05 13:30 | 42.58857 | 1.48844 | 37938 ft | 472 kts | 347° |
| 2026-05-05 13:31 | 42.65429 | 1.47786 | 37912 ft | 472 kts | 347° |
| 2026-05-05 13:31 | 42.71899 | 1.46744 | 37933 ft | 472 kts | 347° |
| 2026-05-05 13:32 | 42.78419 | 1.45694 | 37915 ft | 469 kts | 348° |
| 2026-05-05 13:32 | 42.84882 | 1.44653 | 37941 ft | 468 kts | 347° |
| 2026-05-05 13:33 | 42.91361 | 1.43599 | 37938 ft | 469 kts | 347° |
| 2026-05-05 13:33 | 42.97840 | 1.42548 | 37940 ft | 468 kts | 347° |
| 2026-05-05 13:34 | 43.04304 | 1.41496 | 37965 ft | 468 kts | 348° |
| 2026-05-05 13:34 | 43.10783 | 1.40441 | 37943 ft | 470 kts | 348° |
| 2026-05-05 13:35 | 43.17281 | 1.39380 | 37943 ft | 471 kts | 348° |
| 2026-05-05 13:35 | 43.23791 | 1.38315 | 37967 ft | 471 kts | 348° |
| 2026-05-05 13:36 | 43.30297 | 1.37248 | 37951 ft | 471 kts | 348° |
| 2026-05-05 13:36 | 43.36799 | 1.36179 | 37949 ft | 470 kts | 348° |
| 2026-05-05 13:37 | 43.43291 | 1.35110 | 37955 ft | 469 kts | 348° |
| 2026-05-05 13:37 | 43.49763 | 1.34042 | 37950 ft | 468 kts | 348° |
| 2026-05-05 13:38 | 43.56224 | 1.32972 | 37949 ft | 467 kts | 348° |
| 2026-05-05 13:38 | 43.62672 | 1.31903 | 37953 ft | 466 kts | 349° |
| 2026-05-05 13:39 | 43.69104 | 1.30827 | 37939 ft | 465 kts | 348° |
| 2026-05-05 13:39 | 43.75474 | 1.29399 | 37944 ft | 463 kts | 345° |
| 2026-05-05 13:40 | 43.81806 | 1.27794 | 37940 ft | 463 kts | 345° |
| 2026-05-05 13:40 | 43.88149 | 1.26212 | 37943 ft | 463 kts | 346° |
| 2026-05-05 13:41 | 43.94499 | 1.24668 | 37939 ft | 464 kts | 346° |
| 2026-05-05 13:41 | 44.00857 | 1.23136 | 37937 ft | 464 kts | 346° |
| 2026-05-05 13:42 | 44.07215 | 1.21602 | 37941 ft | 464 kts | 347° |
| 2026-05-05 13:42 | 44.13578 | 1.20063 | 37939 ft | 464 kts | 346° |
| 2026-05-05 13:43 | 44.19945 | 1.18518 | 37933 ft | 465 kts | 346° |
| 2026-05-05 13:43 | 44.26319 | 1.16968 | 37934 ft | 465 kts | 347° |
| 2026-05-05 13:44 | 44.32699 | 1.15412 | 37935 ft | 465 kts | 347° |
| 2026-05-05 13:44 | 44.39079 | 1.13854 | 37945 ft | 466 kts | 347° |
| 2026-05-05 13:45 | 44.45462 | 1.12291 | 37932 ft | 466 kts | 347° |
| 2026-05-05 13:45 | 44.51847 | 1.10725 | 37925 ft | 466 kts | 347° |
| 2026-05-05 13:46 | 44.58231 | 1.09155 | 37929 ft | 466 kts | 347° |
| 2026-05-05 13:46 | 44.64571 | 1.07592 | 37931 ft | 466 kts | 347° |
| 2026-05-05 13:47 | 44.70952 | 1.06016 | 37925 ft | 466 kts | 347° |
| 2026-05-05 13:47 | 44.77332 | 1.04436 | 37927 ft | 465 kts | 347° |
| 2026-05-05 13:48 | 44.83715 | 1.02853 | 37930 ft | 466 kts | 347° |
| 2026-05-05 13:48 | 44.90097 | 1.01265 | 37921 ft | 466 kts | 347° |
| 2026-05-05 13:49 | 44.96479 | 0.99675 | 37918 ft | 466 kts | 347° |
| 2026-05-05 13:49 | 45.02859 | 0.98081 | 37920 ft | 466 kts | 347° |
| 2026-05-05 13:50 | 45.09239 | 0.96483 | 37914 ft | 466 kts | 347° |
| 2026-05-05 13:50 | 45.15619 | 0.94882 | 37916 ft | 465 kts | 347° |
| 2026-05-05 13:51 | 45.21997 | 0.93278 | 37951 ft | 465 kts | 347° |
| 2026-05-05 13:51 | 45.28370 | 0.91671 | 37936 ft | 465 kts | 347° |
| 2026-05-05 13:52 | 45.34740 | 0.90062 | 37931 ft | 465 kts | 347° |
| 2026-05-05 13:52 | 45.41099 | 0.88452 | 37927 ft | 464 kts | 347° |
| 2026-05-05 13:53 | 45.47450 | 0.86839 | 37916 ft | 463 kts | 347° |
| 2026-05-05 13:53 | 45.53799 | 0.85224 | 37906 ft | 464 kts | 347° |
| 2026-05-05 13:54 | 45.59076 | 0.83878 | 37902 ft | 463 kts | 348° |
| 2026-05-05 13:54 | 45.65416 | 0.82258 | 37899 ft | 463 kts | 348° |
| 2026-05-05 13:55 | 45.71747 | 0.80637 | 37893 ft | 462 kts | 348° |
| 2026-05-05 13:55 | 45.78075 | 0.79022 | 37899 ft | 462 kts | 349° |
| 2026-05-05 13:56 | 45.84499 | 0.78510 | 37904 ft | 463 kts | 359° |
| 2026-05-05 13:56 | 45.90949 | 0.78580 | 37887 ft | 464 kts | 359° |
| 2026-05-05 13:57 | 45.97356 | 0.78615 | 37884 ft | 464 kts | 359° |
| 2026-05-05 13:57 | 46.03808 | 0.78578 | 37882 ft | 464 kts | 358° |
| 2026-05-05 13:58 | 46.10314 | 0.78514 | 37862 ft | 465 kts | 358° |
| 2026-05-05 13:58 | 46.16737 | 0.78450 | 37869 ft | 465 kts | 358° |
| 2026-05-05 13:59 | 46.26453 | 0.78358 | 37857 ft | 466 kts | 359° |
| 2026-05-05 14:00 | 46.36191 | 0.78267 | 37862 ft | 466 kts | 358° |
| 2026-05-05 14:00 | 46.42684 | 0.78206 | 37858 ft | 466 kts | 358° |
| 2026-05-05 14:01 | 46.45949 | 0.78175 | 37385 ft | 472 kts | 359° |
| 2026-05-05 14:01 | 46.49225 | 0.78144 | 36879 ft | 469 kts | 359° |
| 2026-05-05 14:01 | 46.52484 | 0.78123 | 36324 ft | 467 kts | 1° |
| 2026-05-05 14:01 | 46.55719 | 0.78506 | 35738 ft | 467 kts | 11° |
| 2026-05-05 14:02 | 46.58881 | 0.79465 | 35323 ft | 462 kts | 13° |
| 2026-05-05 14:02 | 46.62003 | 0.80500 | 34851 ft | 459 kts | 14° |
| 2026-05-05 14:02 | 46.65096 | 0.81538 | 34420 ft | 454 kts | 14° |
| 2026-05-05 14:02 | 46.68168 | 0.82555 | 34000 ft | 451 kts | 14° |
| 2026-05-05 14:03 | 46.71220 | 0.83548 | 33510 ft | 447 kts | 13° |
| 2026-05-05 14:03 | 46.74243 | 0.84516 | 33045 ft | 443 kts | 14° |
| 2026-05-05 14:03 | 46.77231 | 0.85467 | 32642 ft | 437 kts | 14° |
| 2026-05-05 14:03 | 46.80179 | 0.86399 | 32241 ft | 431 kts | 14° |
| 2026-05-05 14:04 | 46.83094 | 0.87323 | 31835 ft | 425 kts | 14° |
| 2026-05-05 14:04 | 46.85968 | 0.88236 | 31439 ft | 420 kts | 15° |
| 2026-05-05 14:04 | 46.88808 | 0.89139 | 31064 ft | 415 kts | 15° |
| 2026-05-05 14:04 | 46.91615 | 0.90034 | 30664 ft | 411 kts | 15° |
| 2026-05-05 14:05 | 46.94390 | 0.90919 | 30279 ft | 406 kts | 16° |
| 2026-05-05 14:05 | 46.97134 | 0.91796 | 29880 ft | 401 kts | 16° |
| 2026-05-05 14:05 | 46.99840 | 0.92660 | 29491 ft | 395 kts | 16° |
| 2026-05-05 14:05 | 47.02500 | 0.93509 | 29132 ft | 388 kts | 16° |
| 2026-05-05 14:06 | 47.05113 | 0.94337 | 28846 ft | 380 kts | 16° |
| 2026-05-05 14:06 | 47.07670 | 0.95144 | 28551 ft | 373 kts | 16° |
| 2026-05-05 14:06 | 47.10188 | 0.95941 | 28263 ft | 367 kts | 16° |
| 2026-05-05 14:06 | 47.12666 | 0.96727 | 27989 ft | 363 kts | 16° |
| 2026-05-05 14:07 | 47.15149 | 0.97519 | 27736 ft | 368 kts | 16° |
| 2026-05-05 14:07 | 47.17658 | 0.98321 | 27423 ft | 368 kts | 16° |
| 2026-05-05 14:07 | 47.20142 | 0.99112 | 27065 ft | 363 kts | 16° |
| 2026-05-05 14:07 | 47.22604 | 0.99897 | 26672 ft | 361 kts | 16° |
| 2026-05-05 14:08 | 47.25015 | 1.00666 | 26292 ft | 358 kts | 15° |
| 2026-05-05 14:08 | 47.27440 | 1.01440 | 25920 ft | 356 kts | 15° |
| 2026-05-05 14:08 | 47.29851 | 1.02211 | 25536 ft | 353 kts | 15° |
| 2026-05-05 14:08 | 47.32249 | 1.02979 | 25165 ft | 352 kts | 15° |
| 2026-05-05 14:09 | 47.34635 | 1.03745 | 24805 ft | 351 kts | 15° |
| 2026-05-05 14:09 | 47.37019 | 1.04510 | 24416 ft | 351 kts | 15° |
| 2026-05-05 14:09 | 47.39402 | 1.05275 | 24045 ft | 350 kts | 15° |
| 2026-05-05 14:09 | 47.41777 | 1.06037 | 23652 ft | 350 kts | 14° |
| 2026-05-05 14:10 | 47.44140 | 1.06885 | 23150 ft | 350 kts | 20° |
| 2026-05-05 14:10 | 47.46440 | 1.08088 | 22675 ft | 349 kts | 23° |
| 2026-05-05 14:10 | 47.48711 | 1.09344 | 22265 ft | 348 kts | 22° |
| 2026-05-05 14:10 | 47.50979 | 1.10569 | 21874 ft | 346 kts | 22° |
| 2026-05-05 14:11 | 47.53242 | 1.11749 | 21484 ft | 344 kts | 21° |
| 2026-05-05 14:11 | 47.55502 | 1.12898 | 21104 ft | 343 kts | 20° |
| 2026-05-05 14:11 | 47.57754 | 1.14035 | 20733 ft | 341 kts | 21° |
| 2026-05-05 14:11 | 47.59991 | 1.15166 | 20368 ft | 339 kts | 20° |
| 2026-05-05 14:12 | 47.62218 | 1.16293 | 20014 ft | 337 kts | 20° |
| 2026-05-05 14:12 | 47.64435 | 1.17418 | 19654 ft | 336 kts | 20° |
| 2026-05-05 14:12 | 47.66644 | 1.18541 | 19297 ft | 335 kts | 20° |
| 2026-05-05 14:12 | 47.68844 | 1.19661 | 18945 ft | 334 kts | 20° |
| 2026-05-05 14:13 | 47.71040 | 1.20781 | 18584 ft | 333 kts | 20° |
| 2026-05-05 14:13 | 47.73233 | 1.21900 | 18229 ft | 333 kts | 20° |
| 2026-05-05 14:13 | 47.75426 | 1.23021 | 17827 ft | 333 kts | 19° |
| 2026-05-05 14:13 | 47.77610 | 1.24138 | 17445 ft | 331 kts | 19° |
| 2026-05-05 14:14 | 47.79757 | 1.25237 | 17071 ft | 330 kts | 19° |
| 2026-05-05 14:14 | 47.81917 | 1.26344 | 16732 ft | 327 kts | 19° |
| 2026-05-05 14:14 | 47.84064 | 1.27445 | 16381 ft | 325 kts | 19° |
| 2026-05-05 14:14 | 47.86200 | 1.28541 | 16030 ft | 324 kts | 19° |
| 2026-05-05 14:15 | 47.88324 | 1.29633 | 15675 ft | 322 kts | 19° |
| 2026-05-05 14:15 | 47.90438 | 1.30720 | 15328 ft | 321 kts | 19° |
| 2026-05-05 14:15 | 47.92542 | 1.31802 | 14983 ft | 319 kts | 18° |
| 2026-05-05 14:15 | 47.94637 | 1.32881 | 14637 ft | 318 kts | 18° |
| 2026-05-05 14:16 | 47.96724 | 1.33958 | 14309 ft | 317 kts | 18° |
| 2026-05-05 14:16 | 47.98807 | 1.35032 | 13965 ft | 316 kts | 18° |
| 2026-05-05 14:16 | 48.00882 | 1.36103 | 13632 ft | 315 kts | 19° |
| 2026-05-05 14:16 | 48.02953 | 1.37173 | 13261 ft | 314 kts | 19° |
| 2026-05-05 14:17 | 48.05009 | 1.38237 | 12906 ft | 312 kts | 19° |
| 2026-05-05 14:17 | 48.06973 | 1.39573 | 12575 ft | 310 kts | 33° |
| 2026-05-05 14:17 | 48.08733 | 1.41420 | 12311 ft | 309 kts | 36° |
| 2026-05-05 14:17 | 48.10492 | 1.43270 | 12018 ft | 310 kts | 35° |
| 2026-05-05 14:18 | 48.12274 | 1.45101 | 11724 ft | 310 kts | 34° |
| 2026-05-05 14:18 | 48.14047 | 1.46904 | 11432 ft | 306 kts | 34° |
| 2026-05-05 14:18 | 48.15799 | 1.48678 | 11145 ft | 303 kts | 34° |
| 2026-05-05 14:18 | 48.17534 | 1.50432 | 10869 ft | 299 kts | 34° |
| 2026-05-05 14:19 | 48.19257 | 1.52175 | 10607 ft | 299 kts | 34° |
| 2026-05-05 14:19 | 48.20983 | 1.53923 | 10360 ft | 300 kts | 34° |
| 2026-05-05 14:19 | 48.22605 | 1.55558 | 10090 ft | 301 kts | 35° |
| 2026-05-05 14:19 | 48.24226 | 1.57175 | 9968 ft | 296 kts | 34° |
| 2026-05-05 14:20 | 48.25909 | 1.58853 | 9993 ft | 286 kts | 33° |
| 2026-05-05 14:20 | 48.27554 | 1.60534 | 9970 ft | 289 kts | 36° |
| 2026-05-05 14:20 | 48.29194 | 1.62287 | 9940 ft | 289 kts | 37° |
| 2026-05-05 14:20 | 48.30849 | 1.64024 | 9787 ft | 290 kts | 37° |
| 2026-05-05 14:21 | 48.32452 | 1.65777 | 9831 ft | 282 kts | 33° |
| 2026-05-05 14:21 | 48.34107 | 1.67322 | 9822 ft | 278 kts | 33° |
| 2026-05-05 14:21 | 48.35749 | 1.68862 | 9808 ft | 278 kts | 34° |
| 2026-05-05 14:21 | 48.37347 | 1.70468 | 9643 ft | 277 kts | 36° |
| 2026-05-05 14:22 | 48.38940 | 1.72140 | 9334 ft | 281 kts | 34° |
| 2026-05-05 14:22 | 48.40539 | 1.73801 | 9027 ft | 278 kts | 34° |
| 2026-05-05 14:22 | 48.42125 | 1.75442 | 8709 ft | 275 kts | 34° |
| 2026-05-05 14:22 | 48.43697 | 1.77062 | 8395 ft | 272 kts | 34° |
| 2026-05-05 14:23 | 48.45254 | 1.78665 | 8092 ft | 270 kts | 34° |
| 2026-05-05 14:23 | 48.46787 | 1.80242 | 7788 ft | 268 kts | 35° |
| 2026-05-05 14:23 | 48.48329 | 1.81827 | 7492 ft | 265 kts | 34° |
| 2026-05-05 14:23 | 48.49845 | 1.83385 | 7236 ft | 262 kts | 34° |
| 2026-05-05 14:24 | 48.51344 | 1.84926 | 6988 ft | 260 kts | 34° |
| 2026-05-05 14:24 | 48.52832 | 1.86456 | 6747 ft | 258 kts | 34° |
| 2026-05-05 14:24 | 48.54315 | 1.87983 | 6506 ft | 257 kts | 34° |
| 2026-05-05 14:24 | 48.55791 | 1.89503 | 6263 ft | 256 kts | 34° |
| 2026-05-05 14:25 | 48.57249 | 1.91057 | 5974 ft | 257 kts | 41° |
| 2026-05-05 14:25 | 48.58396 | 1.93120 | 5653 ft | 258 kts | 57° |
| 2026-05-05 14:25 | 48.59302 | 1.95453 | 5354 ft | 258 kts | 60° |
| 2026-05-05 14:25 | 48.60153 | 1.97840 | 5089 ft | 257 kts | 60° |
| 2026-05-05 14:26 | 48.60967 | 2.00179 | 4956 ft | 250 kts | 61° |
| 2026-05-05 14:26 | 48.61774 | 2.02502 | 4677 ft | 248 kts | 61° |
| 2026-05-05 14:26 | 48.62570 | 2.04785 | 4332 ft | 243 kts | 61° |
| 2026-05-05 14:26 | 48.63349 | 2.07015 | 4010 ft | 237 kts | 60° |
| 2026-05-05 14:27 | 48.64101 | 2.09168 | 3690 ft | 226 kts | 60° |
| 2026-05-05 14:27 | 48.64817 | 2.11211 | 3400 ft | 212 kts | 60° |
| 2026-05-05 14:27 | 48.65485 | 2.13121 | 3127 ft | 199 kts | 59° |
| 2026-05-05 14:27 | 48.66114 | 2.14920 | 2856 ft | 188 kts | 60° |
| 2026-05-05 14:28 | 48.66681 | 2.16635 | 2616 ft | 175 kts | 60° |
| 2026-05-05 14:28 | 48.67235 | 2.18168 | 2426 ft | 156 kts | 58° |
| 2026-05-05 14:28 | 48.67726 | 2.19525 | 2193 ft | 139 kts | 58° |
| 2026-05-05 14:28 | 48.68174 | 2.20786 | 2015 ft | 134 kts | 58° |
| 2026-05-05 14:29 | 48.68615 | 2.22041 | 1859 ft | 137 kts | 59° |
| 2026-05-05 14:29 | 48.69053 | 2.23302 | 1672 ft | 137 kts | 58° |
| 2026-05-05 14:29 | 48.69498 | 2.24566 | 1442 ft | 135 kts | 58° |
| 2026-05-05 14:29 | 48.69940 | 2.25825 | 1262 ft | 135 kts | 58° |
| 2026-05-05 14:30 | 48.70378 | 2.27067 | 1067 ft | 134 kts | 58° |
| 2026-05-05 14:30 | 48.70814 | 2.28314 | 917 ft | 132 kts | 59° |
| 2026-05-05 14:30 | 48.71244 | 2.29539 | 725 ft | 132 kts | 58° |
| 2026-05-05 14:30 | 48.71689 | 2.30812 | 562 ft | 139 kts | 58° |
| 2026-05-05 14:31 | 48.72136 | 2.32084 | 360 ft | 133 kts | 58° |
| 2026-05-05 14:31 | 48.72546 | 2.33239 | 299 ft | 110 kts | 61° |
| 2026-05-05 14:31 | 48.72840 | 2.34074 | 301 ft | 70 kts | 61° |
| 2026-05-05 14:31 | 48.72983 | 2.34513 | 298 ft | 31 kts | 72° |
| 2026-05-05 14:32 | 48.73017 | 2.34811 | 297 ft | 26 kts | 76° |
| 2026-05-05 14:32 | 48.73038 | 2.35044 | 299 ft | 11 kts | 85° |
| 2026-05-05 14:32 | 48.73040 | 2.35111 | 297 ft | 6 kts | 92° |
| 2026-05-05 14:32 | 48.73032 | 2.35172 | 298 ft | 6 kts | 105° |
| 2026-05-05 14:33 | 48.73009 | 2.35238 | 299 ft | 11 kts | 129° |
| 2026-05-05 14:33 | 48.72918 | 2.35333 | 300 ft | 19 kts | 133° |
| 2026-05-05 14:33 | 48.72826 | 2.35448 | 299 ft | 18 kts | 170° |
| 2026-05-05 14:33 | 48.72710 | 2.35492 | 299 ft | 17 kts | 164° |
| 2026-05-05 14:34 | 48.72596 | 2.35541 | 297 ft | 17 kts | 164° |
| 2026-05-05 14:34 | 48.72486 | 2.35590 | 301 ft | 16 kts | 155° |
| 2026-05-05 14:34 | 48.72474 | 2.35732 | 297 ft | 15 kts | 73° |
| 2026-05-05 14:34 | 48.72476 | 2.35873 | 298 ft | 15 kts | 98° |
| 2026-05-05 14:35 | 48.72468 | 2.36022 | 297 ft | 14 kts | 84° |
| 2026-05-05 14:35 | 48.72495 | 2.36163 | 299 ft | 14 kts | 75° |
| 2026-05-05 14:35 | 48.72519 | 2.36299 | 299 ft | 13 kts | 76° |
| 2026-05-05 14:35 | 48.72543 | 2.36438 | 297 ft | 15 kts | 73° |
| 2026-05-05 14:36 | 48.72576 | 2.36603 | 301 ft | 19 kts | 71° |
| 2026-05-05 14:36 | 48.72622 | 2.36789 | 301 ft | 19 kts | 70° |
| 2026-05-05 14:36 | 48.72661 | 2.36972 | 298 ft | 18 kts | 74° |
| 2026-05-05 14:36 | 48.72695 | 2.37150 | 299 ft | 17 kts | 73° |
| 2026-05-05 14:37 | 48.72724 | 2.37301 | 301 ft | 14 kts | 74° |
| 2026-05-05 14:37 | 48.72746 | 2.37426 | 297 ft | 13 kts | 75° |
| 2026-05-05 14:37 | 48.72790 | 2.37493 | 299 ft | 8 kts | 352° |
| 2026-05-05 14:37 | 48.72815 | 2.37485 | 298 ft | 0 kts | 348° |
| 2026-05-05 14:38 | 48.72825 | 2.37482 | 298 ft | 4 kts | 347° |
| 2026-05-05 14:38 | 48.72836 | 2.37478 | 297 ft | 0 kts | 346° |